<?xml version="1.0" encoding="UTF-8" standalone="no" ?>
<gpx xmlns="http://www.topografix.com/GPX/1/1" xmlns:xsi="http://www.w3.org/2001/XMLSchema-instance" xsi:schemaLocation="http://www.topografix.com/GPX/1/1 http://www.topografix.com/GPX/1/1/gpx.xsd" version="1.1" creator="VisuGPX - https://www.visugpx.com">
  <metadata>
    <name>boucles beaumont</name>
    <desc><![CDATA[boucles beaumont du périgord]]></desc>
  </metadata>
  <trk>
    <name><![CDATA[BBmt61]]></name>
    <trkseg>
      <trkpt lat="44.74215" lon="0.8297">
        <ele>158</ele>
        <time>2009-01-20T11:34:49Z</time>
      </trkpt>
      <trkpt lat="44.74235" lon="0.8297">
        <ele>159</ele>
        <time>2009-01-20T11:35:20Z</time>
      </trkpt>
      <trkpt lat="44.74255" lon="0.82963">
        <ele>161</ele>
        <time>2009-01-20T11:36:36Z</time>
      </trkpt>
      <trkpt lat="44.74275" lon="0.82958">
        <ele>160</ele>
        <time>2009-01-20T11:36:40Z</time>
      </trkpt>
      <trkpt lat="44.7429" lon="0.82938">
        <ele>159</ele>
        <time>2009-01-20T11:36:44Z</time>
      </trkpt>
      <trkpt lat="44.74288" lon="0.8291">
        <ele>156</ele>
        <time>2009-01-20T11:36:48Z</time>
      </trkpt>
      <trkpt lat="44.74285" lon="0.82878">
        <ele>154</ele>
        <time>2009-01-20T11:36:52Z</time>
      </trkpt>
      <trkpt lat="44.74285" lon="0.82843">
        <ele>153</ele>
        <time>2009-01-20T11:36:56Z</time>
      </trkpt>
      <trkpt lat="44.7429" lon="0.82818">
        <ele>155</ele>
        <time>2009-01-20T11:36:59Z</time>
      </trkpt>
      <trkpt lat="44.74305" lon="0.82793">
        <ele>159</ele>
        <time>2009-01-20T11:37:02Z</time>
      </trkpt>
      <trkpt lat="44.74315" lon="0.82763">
        <ele>159</ele>
        <time>2009-01-20T11:37:05Z</time>
      </trkpt>
      <trkpt lat="44.74323" lon="0.8273">
        <ele>160</ele>
        <time>2009-01-20T11:37:08Z</time>
      </trkpt>
      <trkpt lat="44.74325" lon="0.827">
        <ele>161</ele>
        <time>2009-01-20T11:37:11Z</time>
      </trkpt>
      <trkpt lat="44.74338" lon="0.82675">
        <ele>160</ele>
        <time>2009-01-20T11:37:14Z</time>
      </trkpt>
      <trkpt lat="44.7435" lon="0.8265">
        <ele>158</ele>
        <time>2009-01-20T11:37:17Z</time>
      </trkpt>
      <trkpt lat="44.74365" lon="0.82623">
        <ele>152</ele>
        <time>2009-01-20T11:37:20Z</time>
      </trkpt>
      <trkpt lat="44.74373" lon="0.82595">
        <ele>148</ele>
        <time>2009-01-20T11:37:23Z</time>
      </trkpt>
      <trkpt lat="44.7437" lon="0.82565">
        <ele>146</ele>
        <time>2009-01-20T11:37:26Z</time>
      </trkpt>
      <trkpt lat="44.74365" lon="0.82533">
        <ele>144</ele>
        <time>2009-01-20T11:37:29Z</time>
      </trkpt>
      <trkpt lat="44.74365" lon="0.82503">
        <ele>138</ele>
        <time>2009-01-20T11:37:32Z</time>
      </trkpt>
      <trkpt lat="44.74368" lon="0.8247">
        <ele>136</ele>
        <time>2009-01-20T11:37:35Z</time>
      </trkpt>
      <trkpt lat="44.74378" lon="0.82443">
        <ele>135</ele>
        <time>2009-01-20T11:37:38Z</time>
      </trkpt>
      <trkpt lat="44.74395" lon="0.82415">
        <ele>134</ele>
        <time>2009-01-20T11:37:41Z</time>
      </trkpt>
      <trkpt lat="44.74415" lon="0.82395">
        <ele>134</ele>
        <time>2009-01-20T11:37:44Z</time>
      </trkpt>
      <trkpt lat="44.74438" lon="0.82373">
        <ele>134</ele>
        <time>2009-01-20T11:37:47Z</time>
      </trkpt>
      <trkpt lat="44.74455" lon="0.8235">
        <ele>134</ele>
        <time>2009-01-20T11:37:50Z</time>
      </trkpt>
      <trkpt lat="44.74473" lon="0.82335">
        <ele>134</ele>
        <time>2009-01-20T11:37:53Z</time>
      </trkpt>
      <trkpt lat="44.74455" lon="0.82328">
        <ele>131</ele>
        <time>2009-01-20T11:38:38Z</time>
      </trkpt>
      <trkpt lat="44.74438" lon="0.82335">
        <ele>127</ele>
        <time>2009-01-20T11:38:42Z</time>
      </trkpt>
      <trkpt lat="44.74418" lon="0.82343">
        <ele>125</ele>
        <time>2009-01-20T11:38:49Z</time>
      </trkpt>
      <trkpt lat="44.74398" lon="0.82348">
        <ele>123</ele>
        <time>2009-01-20T11:38:55Z</time>
      </trkpt>
      <trkpt lat="44.74378" lon="0.8235">
        <ele>121</ele>
        <time>2009-01-20T11:39:00Z</time>
      </trkpt>
      <trkpt lat="44.74358" lon="0.82355">
        <ele>118</ele>
        <time>2009-01-20T11:39:05Z</time>
      </trkpt>
      <trkpt lat="44.74338" lon="0.82365">
        <ele>117</ele>
        <time>2009-01-20T11:39:10Z</time>
      </trkpt>
      <trkpt lat="44.74323" lon="0.8238">
        <ele>115</ele>
        <time>2009-01-20T11:39:15Z</time>
      </trkpt>
      <trkpt lat="44.74308" lon="0.82403">
        <ele>113</ele>
        <time>2009-01-20T11:39:20Z</time>
      </trkpt>
      <trkpt lat="44.74293" lon="0.82423">
        <ele>111</ele>
        <time>2009-01-20T11:39:25Z</time>
      </trkpt>
      <trkpt lat="44.7427" lon="0.82413">
        <ele>123</ele>
        <time>2009-01-20T11:39:40Z</time>
      </trkpt>
      <trkpt lat="44.74263" lon="0.82383">
        <ele>126</ele>
        <time>2009-01-20T11:39:45Z</time>
      </trkpt>
      <trkpt lat="44.74255" lon="0.82358">
        <ele>129</ele>
        <time>2009-01-20T11:39:49Z</time>
      </trkpt>
      <trkpt lat="44.74248" lon="0.82333">
        <ele>130</ele>
        <time>2009-01-20T11:39:53Z</time>
      </trkpt>
      <trkpt lat="44.74233" lon="0.82318">
        <ele>130</ele>
        <time>2009-01-20T11:39:57Z</time>
      </trkpt>
      <trkpt lat="44.74215" lon="0.8231">
        <ele>129</ele>
        <time>2009-01-20T11:40:01Z</time>
      </trkpt>
      <trkpt lat="44.74195" lon="0.82308">
        <ele>127</ele>
        <time>2009-01-20T11:40:05Z</time>
      </trkpt>
      <trkpt lat="44.74173" lon="0.82303">
        <ele>124</ele>
        <time>2009-01-20T11:40:09Z</time>
      </trkpt>
      <trkpt lat="44.74153" lon="0.823">
        <ele>121</ele>
        <time>2009-01-20T11:40:13Z</time>
      </trkpt>
      <trkpt lat="44.74133" lon="0.82295">
        <ele>120</ele>
        <time>2009-01-20T11:40:17Z</time>
      </trkpt>
      <trkpt lat="44.74113" lon="0.82293">
        <ele>119</ele>
        <time>2009-01-20T11:40:21Z</time>
      </trkpt>
      <trkpt lat="44.7409" lon="0.82293">
        <ele>116</ele>
        <time>2009-01-20T11:40:26Z</time>
      </trkpt>
      <trkpt lat="44.7407" lon="0.82293">
        <ele>110</ele>
        <time>2009-01-20T11:40:30Z</time>
      </trkpt>
      <trkpt lat="44.7405" lon="0.82293">
        <ele>109</ele>
        <time>2009-01-20T11:40:34Z</time>
      </trkpt>
      <trkpt lat="44.7403" lon="0.82288">
        <ele>106</ele>
        <time>2009-01-20T11:40:38Z</time>
      </trkpt>
      <trkpt lat="44.74008" lon="0.82283">
        <ele>104</ele>
        <time>2009-01-20T11:40:43Z</time>
      </trkpt>
      <trkpt lat="44.73985" lon="0.82278">
        <ele>104</ele>
        <time>2009-01-20T11:40:47Z</time>
      </trkpt>
      <trkpt lat="44.73965" lon="0.82278">
        <ele>101</ele>
        <time>2009-01-20T11:40:51Z</time>
      </trkpt>
      <trkpt lat="44.7394" lon="0.82275">
        <ele>100</ele>
        <time>2009-01-20T11:40:55Z</time>
      </trkpt>
      <trkpt lat="44.7392" lon="0.82273">
        <ele>100</ele>
        <time>2009-01-20T11:40:59Z</time>
      </trkpt>
      <trkpt lat="44.739" lon="0.82273">
        <ele>97</ele>
        <time>2009-01-20T11:41:03Z</time>
      </trkpt>
      <trkpt lat="44.7388" lon="0.82273">
        <ele>96</ele>
        <time>2009-01-20T11:41:08Z</time>
      </trkpt>
      <trkpt lat="44.7386" lon="0.8227">
        <ele>103</ele>
        <time>2009-01-20T11:41:16Z</time>
      </trkpt>
      <trkpt lat="44.73843" lon="0.82258">
        <ele>104</ele>
        <time>2009-01-20T11:41:26Z</time>
      </trkpt>
      <trkpt lat="44.73825" lon="0.82248">
        <ele>101</ele>
        <time>2009-01-20T11:41:33Z</time>
      </trkpt>
      <trkpt lat="44.73808" lon="0.82238">
        <ele>98</ele>
        <time>2009-01-20T11:41:39Z</time>
      </trkpt>
      <trkpt lat="44.73785" lon="0.82233">
        <ele>94</ele>
        <time>2009-01-20T11:41:45Z</time>
      </trkpt>
      <trkpt lat="44.73765" lon="0.82233">
        <ele>96</ele>
        <time>2009-01-20T11:41:51Z</time>
      </trkpt>
      <trkpt lat="44.73745" lon="0.82235">
        <ele>97</ele>
        <time>2009-01-20T11:41:58Z</time>
      </trkpt>
      <trkpt lat="44.73723" lon="0.8224">
        <ele>99</ele>
        <time>2009-01-20T11:42:04Z</time>
      </trkpt>
      <trkpt lat="44.73703" lon="0.82245">
        <ele>97</ele>
        <time>2009-01-20T11:42:11Z</time>
      </trkpt>
      <trkpt lat="44.73685" lon="0.82238">
        <ele>105</ele>
        <time>2009-01-20T11:43:15Z</time>
      </trkpt>
      <trkpt lat="44.73673" lon="0.82218">
        <ele>103</ele>
        <time>2009-01-20T11:43:29Z</time>
      </trkpt>
      <trkpt lat="44.7366" lon="0.82195">
        <ele>105</ele>
        <time>2009-01-20T11:43:46Z</time>
      </trkpt>
      <trkpt lat="44.73653" lon="0.8217">
        <ele>107</ele>
        <time>2009-01-20T11:43:59Z</time>
      </trkpt>
      <trkpt lat="44.73658" lon="0.82121">
        <ele>108</ele>
        <time>2009-06-18T16:43:36Z</time>
      </trkpt>
      <trkpt lat="44.73661" lon="0.82085">
        <ele>113</ele>
        <time>2009-06-18T16:43:36Z</time>
      </trkpt>
      <trkpt lat="44.73659" lon="0.81941">
        <ele>130</ele>
        <time>2009-06-18T16:43:36Z</time>
      </trkpt>
      <trkpt lat="44.7363" lon="0.82009">
        <ele>126</ele>
        <time>2009-01-20T11:44:16Z</time>
      </trkpt>
    </trkseg>
  </trk>
</gpx>